Time;durP1;ratioP1;P1;durP2;ratioP2;P2;SDS_P1;SDS_P2;PMS_P1;PMS_P2;Temp;Humidity;BMP_temperature;BMP_pressure;BME280_temperature;BME280_humidity;BME280_pressure;Samples;Min_cycle;Max_cycle;Signal;HPM_P1;HPM_P2
2021/11/12 00:04:03;;;;;;;0.38;0.38;;;;;;;;;;5075134;28;20039;-86
2021/11/12 00:11:52;;;;;;;0.43;0.43;;;;;;;;;;5073617;28;20245;-86
2021/11/12 00:14:49;;;;;;;0.80;0.80;;;;;;;;;;5086284;28;20032;-85
2021/11/12 00:17:16;;;;;;;0.40;0.40;;;;;;;;;;5077625;28;20035;-86
2021/11/12 00:19:42;;;;;;;0.10;0.10;;;;;;;;;;5073885;28;21379;-85
2021/11/12 00:22:07;;;;;;;0.65;0.65;;;;;;;;;;5075405;28;20036;-85
2021/11/12 00:24:32;;;;;;;1.48;1.38;;;;;;;;;;5073754;28;20128;-86
2021/11/12 00:26:58;;;;;;;8.05;1.58;;;;;;;;;;5075951;28;20028;-86
2021/11/12 00:29:24;;;;;;;1.35;0.85;;;;;;;;;;5075899;28;20024;-87
2021/11/12 00:32:18;;;;;;;0.55;0.55;;;;;;;;;;5077647;28;20032;-86
2021/11/12 00:40:06;;;;;;;0.30;0.30;;;;;;;;;;5092274;28;20047;-87
2021/11/12 00:45:04;;;;;;;0.70;0.70;;;;;;;;;;5092581;28;20024;-86
2021/11/12 00:55:27;;;;;;;0.63;0.63;;;;;;;;;;5084378;28;20066;-87
2021/11/12 00:57:53;;;;;;;0.00;0.00;;;;;;;;;;5092723;28;20452;-87
2021/11/12 01:00:20;;;;;;;0.10;0.10;;;;;;;;;;5093079;28;20071;-87
2021/11/12 01:02:46;;;;;;;0.25;0.15;;;;;;;;;;5092772;28;20095;-87
2021/11/12 01:05:12;;;;;;;0.65;0.65;;;;;;;;;;5091790;28;20070;-87
2021/11/12 01:07:38;;;;;;;0.63;0.63;;;;;;;;;;5092924;28;20480;-87
2021/11/12 01:10:04;;;;;;;0.10;0.10;;;;;;;;;;5093004;28;20016;-87
2021/11/12 01:12:30;;;;;;;0.88;0.80;;;;;;;;;;5095367;28;20012;-86
2021/11/12 01:14:56;;;;;;;0.10;0.10;;;;;;;;;;5080728;28;20035;-87
2021/11/12 01:17:21;;;;;;;0.10;0.10;;;;;;;;;;5090904;28;20089;-87
2021/11/12 01:19:47;;;;;;;0.10;0.10;;;;;;;;;;5095253;28;20081;-87
2021/11/12 01:22:12;;;;;;;0.43;0.38;;;;;;;;;;5096334;28;20415;-87
2021/11/12 01:24:38;;;;;;;0.20;0.20;;;;;;;;;;5096426;28;20361;-87
2021/11/12 01:27:03;;;;;;;0.10;0.10;;;;;;;;;;5096412;28;20486;-85
2021/11/12 01:29:29;;;;;;;0.65;0.65;;;;;;;;;;5079383;28;20111;-87
2021/11/12 01:31:54;;;;;;;0.70;0.70;;;;;;;;;;5091584;28;20021;-87
2021/11/12 01:34:20;;;;;;;0.20;0.20;;;;;;;;;;5082526;28;20514;-87
2021/11/12 01:36:46;;;;;;;0.00;0.00;;;;;;;;;;5083863;28;20052;-84
2021/11/12 01:39:15;;;;;;;0.50;0.50;;;;;;;;;;5091720;28;20097;-87
2021/11/12 01:41:46;;;;;;;1.02;0.70;;;;;;;;;;5092442;28;20043;-84
2021/11/12 01:44:12;;;;;;;0.30;0.30;;;;;;;;;;5082971;28;20024;-85
2021/11/12 01:59:17;;;;;;;0.22;0.22;;;;;;;;;;5075437;28;20115;-85
2021/11/12 02:01:47;;;;;;;0.00;0.00;;;;;;;;;;5092090;28;20120;-87
2021/11/12 02:04:14;;;;;;;0.10;0.10;;;;;;;;;;5082819;28;20077;-87
2021/11/12 02:06:40;;;;;;;0.57;0.57;;;;;;;;;;5084523;28;20044;-86
2021/11/12 02:09:40;;;;;;;0.10;0.10;;;;;;;;;;5090018;28;20071;-86
2021/11/12 02:12:16;;;;;;;0.10;0.10;;;;;;;;;;5080760;28;20028;-87
2021/11/12 02:14:42;;;;;;;0.25;0.25;;;;;;;;;;5094118;28;20032;-85
2021/11/12 02:17:23;;;;;;;0.00;0.00;;;;;;;;;;5095431;28;20023;-87
2021/11/12 02:19:53;;;;;;;0.10;0.10;;;;;;;;;;5095669;28;20043;-87
2021/11/12 02:22:19;;;;;;;0.40;0.40;;;;;;;;;;5094824;28;20031;-87
2021/11/12 02:24:53;;;;;;;1.30;1.20;;;;;;;;;;5095066;28;20035;-87
2021/11/12 02:27:20;;;;;;;0.20;0.20;;;;;;;;;;5095239;28;20035;-87
2021/11/12 02:29:50;;;;;;;0.15;0.15;;;;;;;;;;5094020;28;20032;-87
2021/11/12 02:32:17;;;;;;;15.38;1.40;;;;;;;;;;5095314;28;20012;-87
2021/11/12 02:34:43;;;;;;;0.20;0.20;;;;;;;;;;5095120;28;20012;-86
2021/11/12 02:37:08;;;;;;;0.00;0.00;;;;;;;;;;5095141;28;20397;-87
2021/11/12 02:39:35;;;;;;;0.20;0.20;;;;;;;;;;5094392;28;20464;-87
2021/11/12 02:42:01;;;;;;;0.28;0.20;;;;;;;;;;5094779;28;20403;-87
2021/11/12 02:44:32;;;;;;;0.13;0.13;;;;;;;;;;5094925;28;20031;-87
2021/11/12 02:46:58;;;;;;;0.38;0.38;;;;;;;;;;5094964;28;20452;-86
2021/11/12 02:49:23;;;;;;;0.47;0.28;;;;;;;;;;5094937;28;20027;-87
2021/11/12 02:51:48;;;;;;;0.00;0.00;;;;;;;;;;5094563;28;20455;-87
2021/11/12 02:54:14;;;;;;;0.10;0.10;;;;;;;;;;5094753;28;20030;-87
2021/11/12 02:56:39;;;;;;;0.25;0.25;;;;;;;;;;5093637;28;20016;-87
2021/11/12 02:59:06;;;;;;;0.73;0.73;;;;;;;;;;5094659;28;20468;-87
2021/11/12 03:01:34;;;;;;;0.40;0.40;;;;;;;;;;5094471;28;20028;-87
2021/11/12 03:03:59;;;;;;;0.10;0.10;;;;;;;;;;5094675;28;20069;-87
2021/11/12 03:06:25;;;;;;;0.40;0.40;;;;;;;;;;5093294;28;20395;-87
2021/11/12 03:08:51;;;;;;;0.20;0.20;;;;;;;;;;5094552;28;20501;-86
2021/11/12 03:11:17;;;;;;;0.17;0.17;;;;;;;;;;5094459;28;20012;-87
2021/11/12 03:13:45;;;;;;;0.25;0.25;;;;;;;;;;5094566;28;20024;-87
2021/11/12 03:16:11;;;;;;;0.10;0.10;;;;;;;;;;5094130;28;20581;-86
2021/11/12 03:18:37;;;;;;;0.30;0.30;;;;;;;;;;5094378;28;20032;-87
2021/11/12 03:21:03;;;;;;;1.55;0.63;;;;;;;;;;5094205;28;20035;-87
2021/11/12 03:24:13;;;;;;;0.32;0.32;;;;;;;;;;5094196;28;20463;-87
2021/11/12 03:29:25;;;;;;;1.65;0.52;;;;;;;;;;5094166;28;20032;-87
2021/11/12 04:04:34;;;;;;;2.22;1.45;;;;;;;;;;5093642;28;20020;-87
2021/11/12 05:46:42;;;;;;;0.20;0.20;;;;;;;;;;5096024;28;20020;-87
2021/11/12 05:57:04;;;;;;;0.17;0.17;;;;;;;;;;5095092;28;20031;-87
2021/11/12 05:59:29;;;;;;;0.80;0.45;;;;;;;;;;5095121;28;20396;-87
2021/11/12 06:01:55;;;;;;;6.10;0.85;;;;;;;;;;5095908;28;20099;-87
2021/11/12 06:04:21;;;;;;;0.25;0.25;;;;;;;;;;5095604;28;20418;-87
2021/11/12 06:06:46;;;;;;;0.30;0.30;;;;;;;;;;5096102;28;20029;-88
2021/11/12 06:09:11;;;;;;;0.00;0.00;;;;;;;;;;5095836;28;20027;-87
2021/11/12 06:11:37;;;;;;;0.10;0.10;;;;;;;;;;5095720;28;20028;-87
2021/11/12 06:14:03;;;;;;;0.10;0.10;;;;;;;;;;5095972;28;20543;-87
2021/11/12 06:16:28;;;;;;;0.00;0.00;;;;;;;;;;5095558;28;20032;-87
2021/11/12 06:18:54;;;;;;;0.00;0.00;;;;;;;;;;5095274;28;20036;-87
2021/11/12 06:21:20;;;;;;;0.00;0.00;;;;;;;;;;5095557;28;20032;-88
2021/11/12 06:23:45;;;;;;;0.08;0.08;;;;;;;;;;5095389;28;20474;-86
2021/11/12 06:26:10;;;;;;;0.10;0.10;;;;;;;;;;5095529;28;20088;-87
2021/11/12 06:28:36;;;;;;;0.05;0.05;;;;;;;;;;5095319;28;20107;-87
2021/11/12 06:31:02;;;;;;;0.00;0.00;;;;;;;;;;5094694;28;20024;-87
2021/11/12 06:33:29;;;;;;;0.00;0.00;;;;;;;;;;5095192;28;20437;-87
2021/11/12 06:35:54;;;;;;;0.00;0.00;;;;;;;;;;5095305;28;20063;-86
2021/11/12 06:38:24;;;;;;;0.00;0.00;;;;;;;;;;5095125;28;20016;-86
2021/11/12 06:40:50;;;;;;;0.10;0.10;;;;;;;;;;5095218;28;20024;-87
2021/11/12 06:43:25;;;;;;;0.10;0.10;;;;;;;;;;5095003;28;20028;-87
2021/11/12 06:51:18;;;;;;;0.03;0.03;;;;;;;;;;5094562;28;20116;-87
2021/11/12 06:53:44;;;;;;;0.00;0.00;;;;;;;;;;5094733;28;20064;-87
2021/11/12 06:56:09;;;;;;;0.00;0.00;;;;;;;;;;5094757;28;20065;-87
2021/11/12 06:58:38;;;;;;;1.75;1.55;;;;;;;;;;5094631;28;20452;-87
2021/11/12 07:01:03;;;;;;;0.00;0.00;;;;;;;;;;5094679;28;20123;-87
2021/11/12 07:03:28;;;;;;;0.00;0.00;;;;;;;;;;5094922;28;20479;-87
2021/11/12 07:05:54;;;;;;;0.00;0.00;;;;;;;;;;5094672;28;20380;-86
2021/11/12 07:08:20;;;;;;;0.00;0.00;;;;;;;;;;5094762;28;20107;-87
2021/11/12 07:10:45;;;;;;;0.10;0.10;;;;;;;;;;5094401;28;20463;-87
2021/11/12 07:13:10;;;;;;;0.03;0.03;;;;;;;;;;5082905;28;20480;-88
2021/11/12 07:15:36;;;;;;;0.03;0.03;;;;;;;;;;5074129;28;20392;-87
2021/11/12 07:18:01;;;;;;;0.20;0.20;;;;;;;;;;5074018;28;20024;-86
2021/11/12 07:20:27;;;;;;;0.57;0.57;;;;;;;;;;5074011;28;20457;-87
2021/11/12 07:22:52;;;;;;;3.03;1.50;;;;;;;;;;5074077;28;20035;-87
2021/11/12 07:25:18;;;;;;;0.00;0.00;;;;;;;;;;5074000;28;20457;-87
2021/11/12 07:27:43;;;;;;;0.10;0.10;;;;;;;;;;5073908;28;20103;-87
2021/11/12 07:30:13;;;;;;;15.13;1.88;;;;;;;;;;5073658;28;20115;-88
2021/11/12 07:32:38;;;;;;;0.03;0.03;;;;;;;;;;5072550;28;20475;-87
2021/11/12 07:35:04;;;;;;;0.00;0.00;;;;;;;;;;5073796;28;20020;-87
2021/11/12 07:37:30;;;;;;;5.82;2.90;;;;;;;;;;5072523;28;20060;-87
2021/11/12 07:39:58;;;;;;;0.00;0.00;;;;;;;;;;5072918;28;20378;-87
2021/11/12 07:42:36;;;;;;;0.15;0.15;;;;;;;;;;5072745;28;20042;-87
2021/11/12 07:47:26;;;;;;;1.75;1.65;;;;;;;;;;5073591;28;20516;-87
2021/11/12 07:49:54;;;;;;;0.25;0.15;;;;;;;;;;5073560;28;20029;-86
2021/11/12 07:52:20;;;;;;;0.10;0.10;;;;;;;;;;5073730;28;20029;-87
2021/11/12 07:54:46;;;;;;;0.10;0.10;;;;;;;;;;5073605;28;20021;-87
2021/11/12 07:57:11;;;;;;;0.32;0.32;;;;;;;;;;5073254;28;20037;-86
2021/11/12 07:59:38;;;;;;;1.90;1.77;;;;;;;;;;5073368;28;20028;-87
2021/11/12 08:02:03;;;;;;;0.85;0.55;;;;;;;;;;5073651;28;20032;-86
2021/11/12 08:04:30;;;;;;;0.60;0.60;;;;;;;;;;5073412;28;20037;-86
2021/11/12 08:06:56;;;;;;;0.70;0.63;;;;;;;;;;5073643;28;20027;-87
2021/11/12 08:09:26;;;;;;;0.45;0.45;;;;;;;;;;5073596;28;20021;-87
2021/11/12 08:12:02;;;;;;;0.00;0.00;;;;;;;;;;5073710;28;20033;-87
2021/11/12 08:20:04;;;;;;;2.70;1.15;;;;;;;;;;5093201;28;20085;-87
2021/11/12 08:22:40;;;;;;;0.03;0.03;;;;;;;;;;5096325;28;20032;-86
2021/11/12 08:30:41;;;;;;;0.00;0.00;;;;;;;;;;5097792;28;20020;-83
2021/11/12 08:33:09;;;;;;;0.32;0.28;;;;;;;;;;5094968;28;20055;-85
2021/11/12 08:35:58;;;;;;;1.75;1.50;;;;;;;;;;5084416;28;20415;-85
2021/11/12 08:41:16;;;;;;;0.15;0.15;;;;;;;;;;5080801;28;20040;-86
2021/11/12 08:43:47;;;;;;;3.60;1.10;;;;;;;;;;5096778;28;20053;-84
2021/11/12 08:46:59;;;;;;;1.60;1.50;;;;;;;;;;5097066;28;20036;-87
2021/11/12 08:49:06;;;;;;;0.35;0.35;;;;;;;;;;5093575;28;20040;-87
2021/11/12 08:51:36;;;;;;;0.17;0.17;;;;;;;;;;5096220;28;20036;-88
2021/11/12 08:54:03;;;;;;;0.00;0.00;;;;;;;;;;5096811;28;20044;-87
2021/11/12 08:56:29;;;;;;;28.98;2.60;;;;;;;;;;5096860;28;20036;-87
2021/11/12 08:58:55;;;;;;;0.98;0.93;;;;;;;;;;5085230;28;20050;-87
2021/11/12 09:01:22;;;;;;;0.93;0.90;;;;;;;;;;5075678;28;20016;-87
2021/11/12 09:03:48;;;;;;;2.17;1.98;;;;;;;;;;5075720;28;20029;-87
2021/11/12 09:06:14;;;;;;;0.20;0.20;;;;;;;;;;5088813;28;20111;-87
2021/11/12 09:08:39;;;;;;;0.50;0.50;;;;;;;;;;5076639;28;20025;-87
2021/11/12 09:11:06;;;;;;;1.35;0.95;;;;;;;;;;5076000;28;20043;-88
2021/11/12 09:13:42;;;;;;;0.77;0.68;;;;;;;;;;5075704;28;20346;-87
2021/11/12 09:16:11;;;;;;;1.35;1.25;;;;;;;;;;5085912;28;20529;-87
2021/11/12 09:18:37;;;;;;;9.25;1.55;;;;;;;;;;5095777;28;20039;-87
2021/11/12 09:21:03;;;;;;;0.40;0.40;;;;;;;;;;5096153;28;20019;-88
2021/11/12 09:23:28;;;;;;;0.20;0.20;;;;;;;;;;5096056;28;20028;-87
2021/11/12 09:25:53;;;;;;;4.57;1.08;;;;;;;;;;5096356;28;20110;-88
2021/11/12 09:28:19;;;;;;;0.85;0.85;;;;;;;;;;5096014;28;20158;-87
2021/11/12 09:30:44;;;;;;;1.58;0.55;;;;;;;;;;5093216;28;20353;-87
2021/11/12 09:33:09;;;;;;;4.90;2.33;;;;;;;;;;5094517;28;20702;-84
2021/11/12 09:35:37;;;;;;;0.57;0.57;;;;;;;;;;5089152;28;20016;-84
2021/11/12 09:38:03;;;;;;;0.25;0.25;;;;;;;;;;5087185;28;20371;-82
2021/11/12 09:40:28;;;;;;;0.43;0.30;;;;;;;;;;5089303;28;20508;-85
2021/11/12 09:42:54;;;;;;;11.88;1.33;;;;;;;;;;5085358;28;20085;-86
2021/11/12 09:45:21;;;;;;;11.27;1.05;;;;;;;;;;5078977;28;20052;-86
2021/11/12 09:47:47;;;;;;;0.10;0.10;;;;;;;;;;5091588;28;20024;-85
2021/11/12 09:50:16;;;;;;;0.30;0.30;;;;;;;;;;5091840;28;20039;-86
2021/11/12 09:52:41;;;;;;;0.10;0.10;;;;;;;;;;5091009;28;20020;-85
2021/11/12 09:55:07;;;;;;;2.05;0.90;;;;;;;;;;5090868;28;20024;-86
2021/11/12 09:57:32;;;;;;;21.67;1.85;;;;;;;;;;5090289;28;20016;-86
2021/11/12 10:00:00;;;;;;;1.27;0.55;;;;;;;;;;5091199;28;20492;-85
2021/11/12 10:02:29;;;;;;;0.63;0.63;;;;;;;;;;5089845;28;20539;-85
2021/11/12 10:04:55;;;;;;;1.20;0.90;;;;;;;;;;5086857;28;20069;-85
2021/11/12 10:07:22;;;;;;;6.35;2.25;;;;;;;;;;5091606;28;20024;-86
2021/11/12 10:09:59;;;;;;;0.10;0.10;;;;;;;;;;5084971;28;20024;-86
2021/11/12 10:12:32;;;;;;;3.45;2.47;;;;;;;;;;5088365;28;20113;-86
2021/11/12 10:15:07;;;;;;;1.23;1.10;;;;;;;;;;5089993;28;20032;-87
2021/11/12 10:17:32;;;;;;;0.97;0.80;;;;;;;;;;5077486;28;20017;-86
2021/11/12 10:19:59;;;;;;;18.73;3.22;;;;;;;;;;5083537;28;20047;-86
2021/11/12 10:22:28;;;;;;;10.05;0.85;;;;;;;;;;5078780;28;20119;-86
2021/11/12 10:24:54;;;;;;;2.20;1.83;;;;;;;;;;5090753;28;20462;-86
2021/11/12 10:27:21;;;;;;;4.50;0.57;;;;;;;;;;5090836;28;20074;-86
2021/11/12 10:29:48;;;;;;;6.97;1.75;;;;;;;;;;5089562;28;20028;-85
2021/11/12 10:32:19;;;;;;;1.00;0.80;;;;;;;;;;5082062;28;20033;-85
2021/11/12 10:34:46;;;;;;;0.25;0.25;;;;;;;;;;5084551;28;20036;-85
2021/11/12 10:37:25;;;;;;;0.73;0.68;;;;;;;;;;5074384;28;20078;-86
2021/11/12 10:40:01;;;;;;;0.00;0.00;;;;;;;;;;5091328;28;20020;-84
2021/11/12 10:42:29;;;;;;;0.28;0.22;;;;;;;;;;5079512;28;20036;-85
2021/11/12 10:44:57;;;;;;;0.20;0.20;;;;;;;;;;5084710;28;20024;-85
2021/11/12 10:47:23;;;;;;;1.27;0.63;;;;;;;;;;5074557;28;20051;-86
2021/11/12 10:49:49;;;;;;;2.40;1.60;;;;;;;;;;5084193;28;20012;-84
2021/11/12 10:52:16;;;;;;;0.47;0.47;;;;;;;;;;5079586;28;20020;-83
2021/11/12 10:54:52;;;;;;;0.38;0.38;;;;;;;;;;5089455;28;20039;-84
2021/11/12 10:57:18;;;;;;;0.95;0.95;;;;;;;;;;5073555;28;20028;-84
2021/11/12 11:00:07;;;;;;;0.10;0.10;;;;;;;;;;5082601;28;20041;-84
2021/11/12 11:02:51;;;;;;;0.60;0.60;;;;;;;;;;5082005;28;20346;-85
2021/11/12 11:05:30;;;;;;;0.80;0.57;;;;;;;;;;5088611;28;20036;-85
2021/11/12 11:08:01;;;;;;;7.68;2.40;;;;;;;;;;5090502;28;20043;-84
2021/11/12 11:10:34;;;;;;;0.08;0.08;;;;;;;;;;5083663;28;20039;-86
2021/11/12 11:13:08;;;;;;;1.35;0.82;;;;;;;;;;5082858;28;20508;-83
2021/11/12 11:15:35;;;;;;;0.10;0.10;;;;;;;;;;5082679;28;20028;-85
2021/11/12 11:18:05;;;;;;;1.35;0.75;;;;;;;;;;5063180;28;20020;-83
2021/11/12 11:20:30;;;;;;;0.85;0.77;;;;;;;;;;5071515;28;21010;-85
2021/11/12 11:22:57;;;;;;;0.88;0.73;;;;;;;;;;5069463;28;20171;-84
2021/11/12 11:25:24;;;;;;;1.02;0.77;;;;;;;;;;5080260;28;20043;-84
2021/11/12 11:27:50;;;;;;;0.98;0.95;;;;;;;;;;5085953;28;20032;-84
2021/11/12 11:30:15;;;;;;;1.25;1.02;;;;;;;;;;5089531;28;20047;-83
2021/11/12 11:32:46;;;;;;;0.10;0.10;;;;;;;;;;5088059;28;20027;-84
2021/11/12 11:35:12;;;;;;;0.10;0.10;;;;;;;;;;5089418;28;20028;-84
2021/11/12 11:37:38;;;;;;;4.47;3.50;;;;;;;;;;5074415;28;20071;-84
2021/11/12 11:40:04;;;;;;;0.40;0.40;;;;;;;;;;5088835;28;20388;-84
2021/11/12 11:42:30;;;;;;;0.10;0.10;;;;;;;;;;5089307;28;20035;-84
2021/11/12 11:44:56;;;;;;;0.00;0.00;;;;;;;;;;5085814;28;20028;-84
2021/11/12 11:47:22;;;;;;;0.30;0.30;;;;;;;;;;5081892;28;20017;-84
2021/11/12 11:49:54;;;;;;;2.38;1.63;;;;;;;;;;5090197;28;20031;-84
2021/11/12 11:52:23;;;;;;;0.00;0.00;;;;;;;;;;5088690;28;20067;-84
2021/11/12 11:54:49;;;;;;;4.97;1.73;;;;;;;;;;5090436;28;20153;-84
2021/11/12 11:57:16;;;;;;;0.13;0.13;;;;;;;;;;5088945;28;20518;-84
2021/11/12 11:59:43;;;;;;;2.75;1.45;;;;;;;;;;5089993;28;20035;-84
2021/11/12 12:02:14;;;;;;;1.02;0.85;;;;;;;;;;5080491;28;20020;-84
2021/11/12 12:04:49;;;;;;;2.67;1.55;;;;;;;;;;5078344;28;20392;-84
2021/11/12 12:07:17;;;;;;;0.70;0.70;;;;;;;;;;5081817;28;20102;-84
2021/11/12 12:10:06;;;;;;;2.85;1.75;;;;;;;;;;5088043;28;20412;-84
2021/11/12 12:12:31;;;;;;;0.65;0.52;;;;;;;;;;5082276;28;20526;-84
2021/11/12 12:15:03;;;;;;;0.68;0.68;;;;;;;;;;5083295;28;20036;-83
2021/11/12 12:17:28;;;;;;;0.63;0.63;;;;;;;;;;5089350;28;20020;-83
2021/11/12 12:20:00;;;;;;;0.32;0.32;;;;;;;;;;5082614;28;20480;-85
2021/11/12 12:40:21;;;;;;;0.10;0.10;;;;;;;;;;5088200;28;20036;-84
2021/11/12 13:24:03;;;;;;;5.15;1.95;;;;;;;;;;5091591;28;20416;-84
2021/11/12 13:26:29;;;;;;;0.15;0.15;;;;;;;;;;5091986;28;20036;-84
2021/11/12 13:28:55;;;;;;;2.35;0.43;;;;;;;;;;5092733;28;20434;-85
2021/11/12 13:31:24;;;;;;;0.00;0.00;;;;;;;;;;5093022;28;20044;-85
2021/11/12 13:33:54;;;;;;;0.00;0.00;;;;;;;;;;5092970;28;20024;-85
2021/11/12 13:36:23;;;;;;;0.10;0.10;;;;;;;;;;5091788;28;20048;-85
2021/11/12 13:38:55;;;;;;;0.43;0.43;;;;;;;;;;5082648;28;20427;-85
2021/11/12 13:41:22;;;;;;;0.00;0.00;;;;;;;;;;5082275;28;20096;-86
2021/11/12 13:43:49;;;;;;;0.00;0.00;;;;;;;;;;5092372;28;20028;-86
2021/11/12 13:46:14;;;;;;;0.80;0.70;;;;;;;;;;5064463;28;20028;-85
2021/11/12 13:48:44;;;;;;;0.22;0.22;;;;;;;;;;5072337;28;20039;-84
2021/11/12 13:51:10;;;;;;;0.20;0.20;;;;;;;;;;5072979;28;20041;-84
2021/11/12 13:53:35;;;;;;;0.63;0.63;;;;;;;;;;5071580;28;20033;-85
2021/11/12 13:56:01;;;;;;;0.00;0.00;;;;;;;;;;5066809;28;20408;-86
2021/11/12 13:58:28;;;;;;;0.88;0.85;;;;;;;;;;5075616;28;20028;-84
2021/11/12 14:00:53;;;;;;;1.00;0.98;;;;;;;;;;5073436;28;20028;-85
2021/11/12 14:03:31;;;;;;;1.65;0.50;;;;;;;;;;5076841;28;20044;-83
2021/11/12 14:06:08;;;;;;;0.00;0.00;;;;;;;;;;5078709;28;20028;-85
2021/11/12 14:08:44;;;;;;;0.82;0.82;;;;;;;;;;5077144;28;20032;-84
2021/11/12 14:11:16;;;;;;;1.25;0.30;;;;;;;;;;5075448;28;20723;-85
2021/11/12 14:13:44;;;;;;;0.10;0.10;;;;;;;;;;5083737;28;20024;-87
2021/11/12 14:19:27;;;;;;;0.45;0.45;;;;;;;;;;5082046;28;20020;-86
2021/11/12 14:21:55;;;;;;;0.55;0.55;;;;;;;;;;5083652;28;20055;-85
2021/11/12 14:40:13;;;;;;;2.45;1.35;;;;;;;;;;5079368;28;20028;-86
2021/11/12 14:48:07;;;;;;;1.20;1.15;;;;;;;;;;5079142;28;20097;-84
2021/11/12 14:55:48;;;;;;;0.10;0.10;;;;;;;;;;5077738;28;20119;-84
2021/11/12 14:58:15;;;;;;;0.85;0.73;;;;;;;;;;5076770;28;20036;-85
2021/11/12 15:00:40;;;;;;;1.90;1.00;;;;;;;;;;5076109;28;20476;-86
2021/11/12 15:03:06;;;;;;;0.13;0.13;;;;;;;;;;5079144;28;20065;-87
2021/11/12 15:05:32;;;;;;;0.10;0.10;;;;;;;;;;5076989;28;20042;-86
2021/11/12 15:08:05;;;;;;;0.00;0.00;;;;;;;;;;5082336;28;20066;-85
2021/11/12 15:10:31;;;;;;;0.88;0.88;;;;;;;;;;5080132;28;20044;-85
2021/11/12 15:12:58;;;;;;;1.55;1.45;;;;;;;;;;5079961;28;20415;-85
2021/11/12 15:15:23;;;;;;;0.50;0.50;;;;;;;;;;5075774;28;20469;-84
2021/11/12 15:17:52;;;;;;;7.32;0.68;;;;;;;;;;5079531;28;20077;-86
2021/11/12 15:20:18;;;;;;;0.10;0.10;;;;;;;;;;5070121;28;20202;-84
2021/11/12 15:28:09;;;;;;;0.25;0.22;;;;;;;;;;5081274;28;20134;-85
2021/11/12 15:30:43;;;;;;;0.03;0.03;;;;;;;;;;5076235;28;20528;-86
2021/11/12 15:33:13;;;;;;;0.90;0.60;;;;;;;;;;5079604;28;20020;-87
2021/11/12 15:35:39;;;;;;;0.30;0.22;;;;;;;;;;5077534;28;20107;-86
2021/11/12 15:38:31;;;;;;;0.15;0.15;;;;;;;;;;5080419;28;20119;-83
2021/11/12 15:41:05;;;;;;;0.10;0.10;;;;;;;;;;5074489;28;20020;-87
2021/11/12 15:43:41;;;;;;;0.10;0.10;;;;;;;;;;5082054;28;20028;-86
2021/11/12 15:46:15;;;;;;;0.85;0.85;;;;;;;;;;5078031;28;20028;-86
2021/11/12 15:48:42;;;;;;;0.35;0.35;;;;;;;;;;5073379;28;20074;-84
2021/11/12 15:51:57;;;;;;;0.20;0.20;;;;;;;;;;5076836;28;21031;-85
2021/11/12 16:07:37;;;;;;;0.03;0.03;;;;;;;;;;5079709;28;20401;-86
2021/11/12 16:25:17;;;;;;;2.30;1.95;;;;;;;;;;5073944;28;20123;-86
2021/11/12 16:27:47;;;;;;;0.10;0.10;;;;;;;;;;5081147;28;20036;-86
2021/11/12 16:30:14;;;;;;;0.10;0.10;;;;;;;;;;5074925;28;20043;-87
2021/11/12 16:32:53;;;;;;;0.32;0.32;;;;;;;;;;5067938;28;20017;-86
2021/11/12 16:35:21;;;;;;;0.20;0.20;;;;;;;;;;5074491;28;20056;-86
2021/11/12 16:37:49;;;;;;;0.20;0.20;;;;;;;;;;5068451;28;20132;-88
2021/11/12 16:40:31;;;;;;;1.08;0.98;;;;;;;;;;5081610;28;20032;-86
2021/11/12 16:45:37;;;;;;;0.40;0.40;;;;;;;;;;5091985;28;20039;-86
2021/11/12 17:08:45;;;;;;;0.00;0.00;;;;;;;;;;5052214;28;20032;-86
2021/11/12 17:16:17;;;;;;;0.25;0.22;;;;;;;;;;5070919;28;20756;-86
2021/11/12 17:19:00;;;;;;;0.38;0.38;;;;;;;;;;5084832;28;20032;-85
2021/11/12 17:46:18;;;;;;;2.25;1.38;;;;;;;;;;5084086;28;20035;-86
2021/11/12 17:48:40;;;;;;;0.00;0.00;;;;;;;;;;5083564;28;20063;-86
2021/11/12 17:51:29;;;;;;;0.00;0.00;;;;;;;;;;5078051;28;20409;-85
2021/11/12 18:04:52;;;;;;;0.63;0.63;;;;;;;;;;5071992;28;20048;-86
2021/11/12 21:44:17;;;;;;;0.10;0.10;;;;;;;;;;5078288;28;20042;-84
2021/11/12 21:46:33;;;;;;;0.65;0.65;;;;;;;;;;5080523;28;20118;-85
2021/11/12 21:48:59;;;;;;;4.05;1.90;;;;;;;;;;5083858;28;20106;-85
2021/11/12 21:51:28;;;;;;;0.28;0.28;;;;;;;;;;5079062;28;20067;-85
2021/11/12 21:53:55;;;;;;;0.00;0.00;;;;;;;;;;5097891;28;20024;-84
2021/11/12 21:56:20;;;;;;;0.13;0.13;;;;;;;;;;5089156;28;20476;-85
2021/11/12 21:58:47;;;;;;;0.10;0.10;;;;;;;;;;5081552;28;20024;-84
2021/11/12 22:01:13;;;;;;;0.00;0.00;;;;;;;;;;5077474;28;20017;-85
2021/11/12 22:03:38;;;;;;;0.20;0.20;;;;;;;;;;5078547;28;20039;-84
2021/11/12 22:06:04;;;;;;;0.00;0.00;;;;;;;;;;5080197;28;20029;-86
2021/11/12 22:08:30;;;;;;;0.10;0.10;;;;;;;;;;5081642;28;20028;-85
2021/11/12 22:11:01;;;;;;;0.00;0.00;;;;;;;;;;5087493;28;20488;-84
2021/11/12 22:13:26;;;;;;;1.85;1.10;;;;;;;;;;5078987;28;20065;-85
2021/11/12 22:15:52;;;;;;;0.93;0.85;;;;;;;;;;5088103;28;20441;-85
2021/11/12 22:18:17;;;;;;;0.50;0.47;;;;;;;;;;5094346;28;20036;-85
2021/11/12 22:20:43;;;;;;;0.00;0.00;;;;;;;;;;5078764;28;20017;-85
2021/11/12 22:23:08;;;;;;;0.20;0.20;;;;;;;;;;5074303;28;20458;-84
2021/11/12 22:25:34;;;;;;;0.10;0.10;;;;;;;;;;5069000;28;21161;-83
2021/11/12 22:28:00;;;;;;;0.00;0.00;;;;;;;;;;5074669;28;20125;-83
2021/11/12 22:30:25;;;;;;;0.10;0.10;;;;;;;;;;5088628;28;20062;-84
2021/11/12 22:32:51;;;;;;;1.20;0.32;;;;;;;;;;5084902;28;20040;-84
2021/11/12 22:35:16;;;;;;;0.00;0.00;;;;;;;;;;5083246;28;20457;-85
2021/11/12 22:37:43;;;;;;;0.10;0.10;;;;;;;;;;5082327;28;20044;-84
2021/11/12 22:40:08;;;;;;;4.88;0.77;;;;;;;;;;5082344;28;20036;-85
2021/11/12 22:42:34;;;;;;;0.00;0.00;;;;;;;;;;5082308;28;20039;-85
2021/11/12 22:44:59;;;;;;;0.00;0.00;;;;;;;;;;5075906;28;20024;-84
2021/11/12 22:47:25;;;;;;;0.00;0.00;;;;;;;;;;5077501;28;20028;-85
2021/11/12 22:49:52;;;;;;;0.00;0.00;;;;;;;;;;5080080;28;20028;-84
2021/11/12 22:52:17;;;;;;;0.00;0.00;;;;;;;;;;5072243;28;20024;-82
2021/11/12 22:54:47;;;;;;;0.00;0.00;;;;;;;;;;5077701;28;20036;-84
2021/11/12 22:57:13;;;;;;;0.00;0.00;;;;;;;;;;5073692;28;20043;-84
2021/11/12 22:59:38;;;;;;;0.65;0.47;;;;;;;;;;5077388;28;20460;-83
2021/11/12 23:02:03;;;;;;;0.00;0.00;;;;;;;;;;5072569;28;20064;-84
2021/11/12 23:04:29;;;;;;;0.10;0.10;;;;;;;;;;5088544;28;20447;-84
2021/11/12 23:06:54;;;;;;;0.00;0.00;;;;;;;;;;5074295;28;20456;-84
2021/11/12 23:09:20;;;;;;;0.30;0.30;;;;;;;;;;5070780;28;20141;-83
2021/11/12 23:11:46;;;;;;;0.30;0.30;;;;;;;;;;5082163;28;20028;-84
2021/11/12 23:14:11;;;;;;;0.00;0.00;;;;;;;;;;5075187;28;20026;-84
2021/11/12 23:16:36;;;;;;;0.00;0.00;;;;;;;;;;5072315;28;20051;-84
2021/11/12 23:19:02;;;;;;;0.15;0.15;;;;;;;;;;5075343;28;20478;-84
2021/11/12 23:21:27;;;;;;;0.00;0.00;;;;;;;;;;5090880;28;20030;-84
2021/11/12 23:23:52;;;;;;;0.00;0.00;;;;;;;;;;5082420;28;20037;-85
2021/11/12 23:26:19;;;;;;;0.00;0.00;;;;;;;;;;5071440;28;20013;-84
2021/11/12 23:28:44;;;;;;;0.20;0.20;;;;;;;;;;5076775;28;20143;-84
2021/11/12 23:31:09;;;;;;;0.32;0.30;;;;;;;;;;5071942;28;20501;-82
2021/11/12 23:33:35;;;;;;;0.00;0.00;;;;;;;;;;5083452;28;20023;-85
2021/11/12 23:36:01;;;;;;;0.00;0.00;;;;;;;;;;5085039;28;20442;-84
2021/11/12 23:38:26;;;;;;;0.55;0.47;;;;;;;;;;5074478;28;20032;-85
2021/11/12 23:40:51;;;;;;;0.00;0.00;;;;;;;;;;5087367;28;20025;-84
2021/11/12 23:43:17;;;;;;;0.17;0.10;;;;;;;;;;5072466;28;20119;-85
2021/11/12 23:45:43;;;;;;;0.98;0.52;;;;;;;;;;5073377;28;20111;-85
2021/11/12 23:48:08;;;;;;;0.00;0.00;;;;;;;;;;5072231;28;20545;-85
2021/11/12 23:50:33;;;;;;;0.00;0.00;;;;;;;;;;5071165;28;20028;-84
2021/11/12 23:52:59;;;;;;;0.00;0.00;;;;;;;;;;5083959;28;20523;-85
2021/11/12 23:55:24;;;;;;;0.00;0.00;;;;;;;;;;5092821;28;20467;-85
2021/11/12 23:57:50;;;;;;;0.00;0.00;;;;;;;;;;5093461;28;20415;-84
